Time;durP1;ratioP1;P1;durP2;ratioP2;P2;SDS_P1;SDS_P2;PMS_P1;PMS_P2;Temp;Humidity;BMP_temperature;BMP_pressure;BME280_temperature;BME280_humidity;BME280_pressure;Samples;Min_cycle;Max_cycle;Signal;HPM_P1;HPM_P2
2023/10/03 00:00:31;;;;;;;;;;;;;;;16.20;100.00;100986.63;5074875;28;20469;-82
2023/10/03 00:03:00;;;;;;;11.00;4.10;;;;;;;16.18;100.00;100971.84;5073491;28;20007;-82
2023/10/03 00:05:31;;;;;;;12.70;4.20;;;;;;;16.20;100.00;100972.66;5074108;28;20058;-82
2023/10/03 00:08:00;;;;;;;10.48;4.07;;;;;;;16.19;100.00;100960.47;5074306;28;20040;-82
2023/10/03 00:10:26;;;;;;;12.07;4.22;;;;;;;16.21;100.00;100954.25;5073274;28;20100;-82
2023/10/03 00:12:52;;;;;;;12.18;4.32;;;;;;;16.23;100.00;100956.84;5074279;28;20040;-82
2023/10/03 00:15:17;;;;;;;9.52;3.97;;;;;;;16.26;100.00;100945.38;5073360;28;20063;-82
2023/10/03 00:17:44;;;;;;;11.30;4.27;;;;;;;16.28;100.00;100949.66;5073946;28;20582;-82
2023/10/03 00:20:12;;;;;;;12.27;4.15;;;;;;;16.26;100.00;100941.03;5073683;28;20021;-82
2023/10/03 00:22:38;;;;;;;10.20;4.20;;;;;;;16.29;100.00;100942.66;5072650;28;20047;-81
2023/10/03 00:25:04;;;;;;;;;;;;;;;16.30;100.00;100945.22;5074248;28;20020;-82
2023/10/03 00:27:32;;;;;;;14.63;5.03;;;;;;;16.28;100.00;100935.72;5074012;28;19912;-82
2023/10/03 00:29:58;;;;;;;14.95;5.05;;;;;;;16.28;100.00;100940.94;5073061;28;20036;-82
2023/10/03 00:32:23;;;;;;;16.37;6.00;;;;;;;16.26;100.00;100932.28;5073684;28;20025;-82
2023/10/03 00:34:49;;;;;;;15.97;5.73;;;;;;;16.21;100.00;100925.44;5073661;28;20023;-82
2023/10/03 00:37:14;;;;;;;17.77;5.73;;;;;;;16.18;100.00;100916.88;5072801;28;20090;-82
2023/10/03 00:39:41;;;;;;;12.07;4.47;;;;;;;16.16;100.00;100913.44;5073676;28;20181;-82
2023/10/03 00:42:09;;;;;;;14.57;4.95;;;;;;;16.12;100.00;100902.25;5073191;28;20278;-82
2023/10/03 00:44:34;;;;;;;13.85;4.82;;;;;;;16.10;100.00;100906.66;5072724;28;20466;-82
2023/10/03 00:47:02;;;;;;;13.63;4.33;;;;;;;16.08;100.00;100908.53;5073542;28;20047;-82
2023/10/03 00:49:29;;;;;;;12.93;4.43;;;;;;;16.09;100.00;100897.13;5073399;28;20028;-82
2023/10/03 00:51:56;;;;;;;14.95;4.72;;;;;;;16.08;100.00;100887.56;5072353;28;20021;-82
2023/10/03 00:54:21;;;;;;;12.75;4.38;;;;;;;16.06;100.00;100884.16;5073255;28;20169;-82
2023/10/03 00:56:47;;;;;;;10.57;4.00;;;;;;;16.02;100.00;100872.09;5073489;28;20111;-82
2023/10/03 00:59:13;;;;;;;13.33;4.37;;;;;;;16.03;100.00;100865.94;5071963;28;20053;-82
2023/10/03 01:01:40;;;;;;;;;;;;;;;16.03;100.00;100865.94;5073238;28;20492;-83
2023/10/03 01:04:10;;;;;;;14.05;4.90;;;;;;;16.04;100.00;100851.94;5072507;28;20287;-82
2023/10/03 01:06:38;;;;;;;13.95;4.63;;;;;;;16.02;100.00;100845.91;5072663;28;20020;-82
2023/10/03 01:09:19;;;;;;;13.63;4.85;;;;;;;16.04;100.00;100846.72;5073289;28;20103;-82
2023/10/03 01:11:47;;;;;;;12.75;4.32;;;;;;;15.99;100.00;100827.69;5072379;28;20025;-82
2023/10/03 01:14:16;;;;;;;12.15;4.40;;;;;;;16.02;100.00;100830.19;5072682;28;20028;-82
2023/10/03 01:16:44;;;;;;;13.05;4.80;;;;;;;15.99;100.00;100819.84;5071538;28;20056;-82
2023/10/03 01:19:25;;;;;;;15.02;5.05;;;;;;;16.00;100.00;100817.19;5071791;28;20039;-81
2023/10/03 01:21:51;;;;;;;14.05;4.72;;;;;;;16.03;100.00;100829.28;5072985;28;20033;-82
2023/10/03 01:24:24;;;;;;;14.90;5.13;;;;;;;15.98;100.00;100810.31;5072494;28;20098;-82
2023/10/03 01:26:53;;;;;;;17.17;6.00;;;;;;;15.96;100.00;100812.13;5072183;28;20024;-82
2023/10/03 01:29:22;;;;;;;16.58;6.18;;;;;;;15.99;100.00;100815.47;5072764;28;20032;-82
2023/10/03 01:31:49;;;;;;;17.50;5.90;;;;;;;15.97;100.00;100808.59;5072840;28;20070;-82
2023/10/03 01:34:15;;;;;;;19.88;7.65;;;;;;;15.99;100.00;100812.00;5071587;28;20029;-82
2023/10/03 01:36:41;;;;;;;22.27;7.82;;;;;;;15.98;100.00;100807.69;5072809;28;20074;-81
2023/10/03 01:39:06;;;;;;;21.23;8.10;;;;;;;15.99;100.00;100810.25;5072564;28;20051;-82
2023/10/03 01:41:32;;;;;;;20.73;7.67;;;;;;;16.03;100.00;100800.50;5071814;28;20024;-82
2023/10/03 01:43:57;;;;;;;20.60;8.33;;;;;;;16.11;100.00;100792.34;5073094;28;20034;-82
2023/10/03 01:46:26;;;;;;;20.37;7.57;;;;;;;16.14;100.00;100779.16;5072780;28;20029;-82
2023/10/03 01:48:54;;;;;;;21.13;7.45;;;;;;;16.25;100.00;100781.31;5072008;28;20033;-82
2023/10/03 01:51:21;;;;;;;19.40;7.03;;;;;;;16.30;100.00;100805.56;5072560;28;20025;-82
2023/10/03 01:53:46;;;;;;;20.85;7.55;;;;;;;16.28;100.00;100782.03;5071883;28;20033;-81
2023/10/03 01:56:12;;;;;;;19.93;7.00;;;;;;;16.35;100.00;100785.28;5072515;28;20020;-82
2023/10/03 01:58:38;;;;;;;20.52;8.15;;;;;;;16.38;100.00;100795.63;5072499;28;20191;-82
2023/10/03 02:01:04;;;;;;;21.20;8.10;;;;;;;16.42;100.00;100789.38;5071550;28;20056;-82
2023/10/03 02:03:29;;;;;;;19.63;7.20;;;;;;;16.50;100.00;100795.13;5072661;28;20079;-81
2023/10/03 02:05:55;;;;;;;19.93;7.27;;;;;;;16.55;100.00;100787.09;5072548;28;20025;-82
2023/10/03 02:08:20;;;;;;;21.43;8.37;;;;;;;16.56;100.00;100788.78;5071467;28;20538;-82
2023/10/03 02:10:48;;;;;;;22.53;8.60;;;;;;;16.59;100.00;100777.31;5072933;28;20044;-82
2023/10/03 02:13:14;;;;;;;21.10;7.97;;;;;;;16.67;100.00;100780.47;5073200;28;20028;-82
2023/10/03 02:15:51;;;;;;;20.87;7.60;;;;;;;16.74;100.00;100783.69;5075834;28;20055;-82
2023/10/03 02:18:21;;;;;;;20.58;7.85;;;;;;;16.76;100.00;100768.75;5076356;28;20274;-82
2023/10/03 02:20:54;;;;;;;18.73;7.03;;;;;;;16.77;100.00;100770.47;5076497;28;20029;-82
2023/10/03 02:23:24;;;;;;;19.20;7.22;;;;;;;16.81;100.00;100761.56;5075145;28;20036;-82
2023/10/03 02:25:57;;;;;;;18.77;6.70;;;;;;;16.84;100.00;100756.16;5076475;28;20074;-82
2023/10/03 02:28:25;;;;;;;20.00;7.35;;;;;;;16.83;100.00;100738.78;5075942;28;20021;-82
2023/10/03 02:30:51;;;;;;;18.58;6.63;;;;;;;16.85;100.00;100743.94;5075637;28;20089;-82
2023/10/03 02:33:18;;;;;;;22.90;8.97;;;;;;;16.89;100.00;100748.97;5075934;28;20441;-82
2023/10/03 02:35:47;;;;;;;21.80;8.82;;;;;;;16.94;100.00;100762.75;5075674;28;20077;-82
2023/10/03 02:38:29;;;;;;;22.30;8.38;;;;;;;17.01;100.00;100770.38;5074795;28;20040;-82
2023/10/03 02:41:01;;;;;;;19.90;7.63;;;;;;;17.07;100.00;100764.84;5076043;28;20081;-82
2023/10/03 02:43:29;;;;;;;17.77;6.55;;;;;;;17.09;100.00;100776.13;5074908;28;20028;-82
2023/10/03 02:45:54;;;;;;;20.38;7.70;;;;;;;17.08;100.00;100756.06;5075746;28;20043;-82
2023/10/03 02:48:26;;;;;;;19.67;7.20;;;;;;;17.11;100.00;100771.66;5075421;28;20461;-82
2023/10/03 02:50:52;;;;;;;16.92;6.60;;;;;;;17.10;100.00;100770.81;5075202;28;20025;-82
2023/10/03 02:53:21;;;;;;;16.33;6.10;;;;;;;17.09;100.00;100771.75;5075764;28;20354;-82
2023/10/03 02:55:52;;;;;;;18.55;6.60;;;;;;;17.13;100.00;100775.06;5075565;28;20020;-82
2023/10/03 02:58:19;;;;;;;20.23;7.38;;;;;;;17.12;100.00;100776.81;5074462;28;20489;-82
2023/10/03 03:00:46;;;;;;;18.85;6.85;;;;;;;17.16;100.00;100781.94;5075539;28;20020;-82
2023/10/03 03:03:13;;;;;;;20.42;7.80;;;;;;;17.28;100.00;100782.25;5075176;28;20028;-82
2023/10/03 03:05:38;;;;;;;22.10;8.38;;;;;;;17.36;100.00;100795.03;5074808;28;20381;-82
2023/10/03 03:10:57;;;;;;;19.05;7.43;;;;;;;17.37;100.00;100777.53;5075406;28;20040;-81
2023/10/03 03:13:32;;;;;;;18.60;6.97;;;;;;;17.36;100.00;100776.66;5074380;28;20052;-82
2023/10/03 03:16:03;;;;;;;17.80;6.15;;;;;;;17.37;100.00;100778.38;5075501;28;20054;-82
2023/10/03 03:18:39;;;;;;;19.30;6.97;;;;;;;17.37;100.00;100778.38;5074668;28;20020;-82
2023/10/03 03:21:08;;;;;;;;;;;;;;;17.41;100.00;100777.31;5075448;28;20021;-82
2023/10/03 03:23:37;;;;;;;21.48;8.05;;;;;;;17.37;100.00;100767.88;5075028;28;19965;-82
2023/10/03 03:26:17;;;;;;;19.65;7.60;;;;;;;17.44;100.00;100765.84;5073682;28;20029;-82
2023/10/03 03:28:44;;;;;;;18.33;6.72;;;;;;;17.49;100.00;100778.72;5075178;28;20405;-82
2023/10/03 03:31:25;;;;;;;19.90;7.03;;;;;;;17.49;100.00;100768.25;5074798;28;20095;-82
2023/10/03 03:33:57;;;;;;;18.42;6.38;;;;;;;17.53;100.00;100764.56;5074210;28;20024;-82
2023/10/03 03:36:24;;;;;;;18.17;6.15;;;;;;;17.55;100.00;100773.22;5074744;28;20032;-82
2023/10/03 03:38:51;;;;;;;16.48;5.50;;;;;;;17.53;100.00;100767.19;5075093;28;20099;-82
2023/10/03 03:41:18;;;;;;;16.60;5.53;;;;;;;17.53;100.00;100769.81;5073965;28;20412;-82
2023/10/03 03:43:44;;;;;;;15.25;5.75;;;;;;;17.50;100.00;100775.19;5074855;28;20396;-82
2023/10/03 03:46:10;;;;;;;15.93;5.53;;;;;;;17.51;100.00;100769.03;5074507;28;20020;-82
2023/10/03 03:48:36;;;;;;;14.40;4.88;;;;;;;17.51;100.00;100769.03;5073848;28;20036;-82
2023/10/03 03:51:05;;;;;;;15.75;5.57;;;;;;;17.50;100.00;100783.94;5074555;28;20119;-81
2023/10/03 03:53:33;;;;;;;17.80;6.00;;;;;;;17.48;100.00;100770.03;5073756;28;20028;-82
2023/10/03 03:56:07;;;;;;;17.65;6.00;;;;;;;17.49;100.00;100776.97;5074476;28;20052;-82
2023/10/03 03:58:37;;;;;;;18.50;6.30;;;;;;;17.49;100.00;100776.97;5074301;28;20069;-82
2023/10/03 04:01:14;;;;;;;17.02;6.00;;;;;;;17.51;100.00;100790.03;5073347;28;20392;-82
2023/10/03 04:03:42;;;;;;;17.25;6.20;;;;;;;17.49;100.00;100783.97;5074536;28;20351;-82
2023/10/03 04:06:08;;;;;;;17.10;6.07;;;;;;;17.50;100.00;100783.06;5074119;28;20016;-82
2023/10/03 04:08:35;;;;;;;17.30;6.28;;;;;;;17.56;100.00;100795.94;5073511;28;20047;-82
2023/10/03 04:11:01;;;;;;;17.50;6.03;;;;;;;17.55;100.00;100794.22;5074403;28;20025;-82
2023/10/03 04:13:27;;;;;;;14.43;5.45;;;;;;;17.58;100.00;100794.94;5073844;28;20016;-82
2023/10/03 04:15:53;;;;;;;15.07;5.35;;;;;;;17.59;100.00;100803.63;5073504;28;20029;-82
2023/10/03 04:18:19;;;;;;;16.15;5.53;;;;;;;17.59;100.00;100804.50;5073966;28;20108;-82
2023/10/03 04:20:46;;;;;;;15.87;5.30;;;;;;;17.60;100.00;100807.97;5074280;28;20067;-82
2023/10/03 04:23:12;;;;;;;12.40;4.97;;;;;;;17.62;100.00;100811.38;5072868;28;20028;-82
2023/10/03 04:25:39;;;;;;;13.47;4.93;;;;;;;17.61;100.00;100814.91;5073803;28;20021;-82
2023/10/03 04:28:05;;;;;;;12.05;4.88;;;;;;;17.63;100.00;100817.47;5073535;28;20027;-82
2023/10/03 04:30:31;;;;;;;14.93;5.28;;;;;;;17.68;100.00;100826.00;5073027;28;20465;-82
2023/10/03 04:32:57;;;;;;;12.83;5.07;;;;;;;17.62;100.00;100819.25;5072793;28;20032;-82
2023/10/03 04:35:23;;;;;;;12.38;4.70;;;;;;;17.71;100.00;100829.31;5073452;28;20025;-83
2023/10/03 04:37:51;;;;;;;;;;;;;;;17.71;100.00;100828.47;5073501;28;20066;-83
2023/10/03 04:40:35;;;;;;;10.75;4.20;;;;;;;17.70;100.00;100832.03;5073428;28;20297;-82
2023/10/03 04:43:07;;;;;;;13.00;4.63;;;;;;;17.69;100.00;100825.91;5072593;28;20031;-82
2023/10/03 04:45:32;;;;;;;13.38;4.82;;;;;;;17.62;100.00;100827.13;5073777;28;20434;-82
2023/10/03 04:48:00;;;;;;;10.00;4.40;;;;;;;17.65;100.00;100845.34;5073583;28;20048;-82
2023/10/03 04:50:25;;;;;;;9.65;4.10;;;;;;;17.67;100.00;100847.91;5071832;28;20481;-82
2023/10/03 04:52:52;;;;;;;7.93;3.60;;;;;;;17.69;100.00;100862.66;5073432;28;20023;-82
2023/10/03 04:55:19;;;;;;;7.82;3.78;;;;;;;17.65;100.00;100853.22;5072946;28;20028;-82
2023/10/03 04:57:46;;;;;;;8.65;3.85;;;;;;;17.65;99.92;100855.00;5072588;28;20025;-82
2023/10/03 05:00:15;;;;;;;;;;;;;;;17.66;99.17;100865.44;5073264;28;20020;-83
2023/10/03 05:02:48;;;;;;;8.27;3.90;;;;;;;17.64;99.46;100855.91;5073047;28;19923;-82
2023/10/03 05:05:15;;;;;;;7.72;4.05;;;;;;;17.60;99.10;100860.44;5072104;28;20072;-82
2023/10/03 05:07:40;;;;;;;7.97;4.15;;;;;;;17.55;98.90;100857.19;5073029;28;20479;-82
2023/10/03 05:10:06;;;;;;;10.87;5.00;;;;;;;17.55;98.10;100858.03;5072654;28;20082;-82
2023/10/03 05:12:32;;;;;;;9.43;4.80;;;;;;;17.57;98.33;100868.44;5072181;28;20098;-82
2023/10/03 05:14:58;;;;;;;8.80;4.43;;;;;;;17.55;97.97;100878.19;5073097;28;20044;-82
2023/10/03 05:17:25;;;;;;;9.63;4.40;;;;;;;17.54;98.04;100893.06;5072740;28;20440;-82
2023/10/03 05:19:50;;;;;;;9.55;4.50;;;;;;;17.56;98.02;100911.38;5071437;28;20654;-81
2023/10/03 05:22:16;;;;;;;12.50;4.70;;;;;;;17.54;97.85;100913.22;5076142;28;20024;-81
2023/10/03 05:24:42;;;;;;;10.07;4.83;;;;;;;17.53;97.85;100916.75;5087121;28;20016;-81
2023/10/03 05:27:07;;;;;;;7.97;4.50;;;;;;;17.53;97.53;100896.59;5081828;28;20056;-81
2023/10/03 05:29:33;;;;;;;8.00;4.33;;;;;;;17.49;97.76;100884.56;5073063;28;20022;-80
2023/10/03 05:32:00;;;;;;;10.02;4.80;;;;;;;17.47;97.68;100875.88;5072068;28;20024;-81
2023/10/03 05:34:25;;;;;;;9.70;4.57;;;;;;;17.41;97.44;100871.75;5072703;28;20036;-81
2023/10/03 05:36:51;;;;;;;7.13;4.03;;;;;;;17.44;97.88;100876.00;5072964;28;20028;-82
2023/10/03 05:39:16;;;;;;;7.07;3.73;;;;;;;17.42;98.11;100878.72;5072064;28;20097;-81
2023/10/03 05:41:42;;;;;;;7.10;3.50;;;;;;;17.39;97.75;100870.97;5072714;28;20031;-81
2023/10/03 05:44:12;;;;;;;9.50;4.47;;;;;;;17.41;97.64;100886.63;5072361;28;20027;-81
2023/10/03 05:46:42;;;;;;;10.70;4.35;;;;;;;17.42;97.98;100893.59;5071688;28;20021;-81
2023/10/03 05:49:08;;;;;;;8.40;4.40;;;;;;;17.39;97.88;100883.25;5076467;28;20381;-85
2023/10/03 05:51:34;;;;;;;;;;;;;;;17.42;98.28;100890.97;5079962;28;20100;-86
2023/10/03 05:54:00;;;;;;;8.60;4.60;;;;;;;17.41;98.31;100884.88;5078482;28;20058;-83
2023/10/03 05:56:25;;;;;;;9.07;4.40;;;;;;;17.39;98.36;100891.97;5078752;28;20024;-83
2023/10/03 05:58:50;;;;;;;10.77;4.60;;;;;;;17.37;98.28;100887.72;5078976;28;20056;-80
2023/10/03 06:01:16;;;;;;;10.03;4.47;;;;;;;17.37;98.57;100891.16;5078302;28;20095;-87
2023/10/03 06:03:41;;;;;;;6.57;3.97;;;;;;;17.37;98.38;100885.91;5079279;28;20385;-87
2023/10/03 06:06:07;;;;;;;5.07;3.53;;;;;;;17.39;98.52;100899.00;5081494;28;20047;-87
2023/10/03 06:08:32;;;;;;;6.70;3.80;;;;;;;17.36;98.77;100894.72;5099096;28;20031;-87
2023/10/03 06:11:00;;;;;;;6.07;3.67;;;;;;;17.31;98.87;100894.06;5099652;28;20488;-88
2023/10/03 06:13:26;;;;;;;10.05;4.03;;;;;;;17.38;98.61;100900.75;5064203;28;20778;-87
2023/10/03 06:15:52;;;;;;;8.00;3.80;;;;;;;17.34;98.75;100896.53;5078514;28;20025;-88
2023/10/03 06:18:18;;;;;;;5.38;3.55;;;;;;;17.37;98.81;100900.81;5078874;28;20052;-85
2023/10/03 06:20:43;;;;;;;4.83;3.40;;;;;;;17.35;98.67;100908.75;5086378;28;20535;-87
2023/10/03 06:23:09;;;;;;;4.75;3.28;;;;;;;17.36;98.83;100912.22;5079610;28;20036;-85
2023/10/03 06:25:35;;;;;;;4.93;3.30;;;;;;;17.34;99.24;100928.00;5079397;28;20032;-86
2023/10/03 06:28:01;;;;;;;7.68;3.88;;;;;;;17.35;98.82;100918.38;5094439;28;20056;-86
2023/10/03 06:30:27;;;;;;;7.78;4.18;;;;;;;17.33;99.45;100931.59;5098448;28;20488;-85
2023/10/03 06:32:52;;;;;;;7.53;4.07;;;;;;;17.34;99.93;100942.91;5089311;28;20039;-85
2023/10/03 06:35:18;;;;;;;8.63;4.50;;;;;;;17.31;100.00;100943.91;5078021;28;20025;-86
2023/10/03 06:37:44;;;;;;;8.25;4.50;;;;;;;17.27;100.00;100940.56;5078700;28;20055;-85
2023/10/03 06:40:13;;;;;;;6.70;3.75;;;;;;;17.23;100.00;100951.22;5078110;28;20461;-86
2023/10/03 06:42:40;;;;;;;8.23;4.57;;;;;;;17.16;100.00;100949.78;5078275;28;20056;-87
2023/10/03 06:45:11;;;;;;;5.97;3.70;;;;;;;17.09;100.00;100946.56;5077510;28;20032;-87
2023/10/03 06:47:38;;;;;;;5.47;3.47;;;;;;;17.06;100.00;100947.53;5078875;28;20091;-82
2023/10/03 06:50:05;;;;;;;4.97;3.38;;;;;;;17.02;100.00;100955.59;5077608;28;20086;-81
2023/10/03 06:52:32;;;;;;;6.05;3.58;;;;;;;16.96;100.00;100952.28;5078592;28;20481;-80
2023/10/03 06:54:57;;;;;;;6.68;3.50;;;;;;;16.95;100.00;100958.44;5082387;28;20027;-81
2023/10/03 06:57:23;;;;;;;5.17;3.30;;;;;;;16.93;100.00;100965.50;5097812;28;20024;-81
2023/10/03 06:59:48;;;;;;;4.00;2.77;;;;;;;16.89;100.00;100977.03;5096706;28;20040;-80
2023/10/03 07:02:13;;;;;;;3.20;2.63;;;;;;;16.92;100.00;100976.91;5093384;28;20066;-81
2023/10/03 07:04:39;;;;;;;3.90;2.57;;;;;;;16.90;100.00;100977.84;5095175;28;20366;-81
2023/10/03 07:07:05;;;;;;;3.33;2.20;;;;;;;16.85;100.00;100980.66;5095684;28;20036;-81
2023/10/03 07:09:31;;;;;;;2.70;2.20;;;;;;;16.89;100.00;100990.13;5095531;28;20532;-81
2023/10/03 07:11:57;;;;;;;3.67;2.60;;;;;;;16.89;100.00;100989.28;5094911;28;20111;-82
2023/10/03 07:14:22;;;;;;;3.00;2.47;;;;;;;16.87;100.00;100999.81;5093918;28;20032;-81
2023/10/03 07:16:48;;;;;;;10.50;4.63;;;;;;;16.82;100.00;100979.03;5095100;28;20020;-81
2023/10/03 07:19:15;;;;;;;10.05;4.47;;;;;;;16.81;100.00;100973.88;5094518;28;20517;-81
2023/10/03 07:21:43;;;;;;;7.50;3.60;;;;;;;16.80;100.00;100983.47;5088618;28;20103;-82
2023/10/03 07:24:09;;;;;;;5.07;3.17;;;;;;;16.82;100.00;100976.41;5074749;28;20033;-81
2023/10/03 07:26:34;;;;;;;6.30;3.60;;;;;;;16.82;100.00;100981.66;5074219;28;20116;-81
2023/10/03 07:29:01;;;;;;;4.17;3.40;;;;;;;16.86;100.00;100984.16;5075010;28;20504;-81
2023/10/03 07:31:28;;;;;;;6.05;3.75;;;;;;;16.85;100.00;100983.28;5073597;28;20028;-81
2023/10/03 07:33:54;;;;;;;4.70;3.38;;;;;;;16.83;100.00;100983.34;5074980;28;20104;-82
2023/10/03 07:36:20;;;;;;;7.95;4.10;;;;;;;16.91;100.00;100983.06;5074593;28;20527;-81
2023/10/03 07:38:45;;;;;;;7.07;4.40;;;;;;;16.90;100.00;100985.72;5074161;28;20017;-81
2023/10/03 07:41:13;;;;;;;6.33;4.10;;;;;;;16.98;100.00;100995.03;5074537;28;20025;-81
2023/10/03 07:43:41;;;;;;;5.50;3.50;;;;;;;17.01;100.00;100988.81;5074504;28;20187;-82
2023/10/03 07:46:06;;;;;;;8.15;4.03;;;;;;;17.02;100.00;100993.13;5073863;28;20070;-81
2023/10/03 07:48:31;;;;;;;5.17;3.50;;;;;;;17.10;100.00;101008.56;5094588;28;20032;-81
2023/10/03 07:50:57;;;;;;;6.53;3.70;;;;;;;17.13;100.00;101017.16;5094825;28;20103;-81
2023/10/03 07:53:22;;;;;;;8.13;4.23;;;;;;;17.10;100.00;101016.44;5093873;28;20035;-81
2023/10/03 07:55:47;;;;;;;5.70;3.83;;;;;;;17.16;100.00;101028.44;5094790;28;20027;-81
2023/10/03 07:58:14;;;;;;;6.10;3.67;;;;;;;17.16;100.00;101044.19;5094117;28;20393;-81
2023/10/03 08:00:44;;;;;;;7.90;3.80;;;;;;;17.14;100.00;101037.22;5093709;28;20311;-81
2023/10/03 08:03:11;;;;;;;4.80;3.40;;;;;;;17.11;100.00;101024.22;5094386;28;20377;-81
2023/10/03 08:05:37;;;;;;;6.05;3.67;;;;;;;17.11;100.00;101026.84;5094429;28;20521;-81
2023/10/03 08:08:03;;;;;;;4.80;3.17;;;;;;;17.11;100.00;101042.59;5093549;28;20024;-81
2023/10/03 08:10:32;;;;;;;5.43;2.90;;;;;;;17.11;100.00;101047.00;5094466;28;20530;-81
2023/10/03 08:13:03;;;;;;;4.28;2.92;;;;;;;17.12;100.00;101081.00;5094096;28;20035;-81
2023/10/03 08:15:31;;;;;;;3.15;2.50;;;;;;;17.10;100.00;101088.09;5093551;28;20048;-81
2023/10/03 08:17:58;;;;;;;12.07;4.95;;;;;;;17.01;100.00;101079.72;5078007;28;20028;-81
2023/10/03 08:20:29;;;;;;;8.40;4.57;;;;;;;16.94;100.00;101072.09;5073733;28;20044;-81
2023/10/03 08:22:55;;;;;;;7.65;4.05;;;;;;;16.93;100.00;101093.97;5072827;28;20060;-81
2023/10/03 08:25:25;;;;;;;7.07;3.90;;;;;;;16.91;100.00;101105.41;5073759;28;20484;-81
2023/10/03 08:27:51;;;;;;;5.50;3.30;;;;;;;16.92;100.00;101107.13;5073119;28;20108;-81
2023/10/03 08:30:29;;;;;;;5.72;3.53;;;;;;;16.93;100.00;101090.47;5073673;28;20111;-81
2023/10/03 08:33:00;;;;;;;4.35;3.00;;;;;;;17.00;100.00;101105.06;5072395;28;20131;-81
2023/10/03 08:35:35;;;;;;;4.72;2.97;;;;;;;17.00;100.00;101109.47;5073659;28;20017;-81
2023/10/03 08:38:06;;;;;;;5.53;3.45;;;;;;;17.03;100.00;101114.63;5073440;28;20044;-81
2023/10/03 08:40:38;;;;;;;5.60;3.00;;;;;;;17.07;100.00;101117.06;5073715;28;20048;-81
2023/10/03 08:43:07;;;;;;;2.78;2.28;;;;;;;17.14;100.00;101130.78;5087803;28;20020;-81
2023/10/03 08:45:52;;;;;;;2.50;2.30;;;;;;;17.20;100.00;101127.09;5093759;28;20373;-81
2023/10/03 08:48:24;;;;;;;2.88;2.30;;;;;;;17.32;100.00;101137.09;5093411;28;20434;-80
2023/10/03 08:50:53;;;;;;;2.28;1.90;;;;;;;17.34;100.00;101153.59;5093106;28;20020;-80
2023/10/03 08:53:26;;;;;;;2.53;2.10;;;;;;;17.36;100.00;101157.03;5093449;28;20078;-81
2023/10/03 08:55:57;;;;;;;1.95;1.75;;;;;;;17.39;100.00;101162.16;5092871;28;20032;-80
2023/10/03 08:58:25;;;;;;;3.50;1.77;;;;;;;17.37;100.00;101157.91;5092069;28;20044;-81
2023/10/03 09:00:58;;;;;;;4.68;1.92;;;;;;;17.27;100.00;101181.88;5053262;28;20044;-80
2023/10/03 09:03:25;;;;;;;3.13;1.70;;;;;;;17.18;100.00;101190.06;5052295;28;20063;-80
2023/10/03 09:05:50;;;;;;;;;;;;;;;17.02;100.00;101195.03;5068064;28;20034;-80
2023/10/03 09:08:16;;;;;;;2.07;1.20;;;;;;;16.89;100.00;101193.75;5073211;28;19912;-80
2023/10/03 09:10:52;;;;;;;1.13;1.02;;;;;;;16.77;100.00;101187.16;5072295;28;20516;-80
2023/10/03 09:13:23;;;;;;;0.60;0.60;;;;;;;16.78;100.00;101197.59;5073847;28;20029;-81
2023/10/03 09:15:59;;;;;;;1.63;0.88;;;;;;;16.79;100.00;101204.53;5073174;28;20091;-80
2023/10/03 09:18:29;;;;;;;1.70;0.90;;;;;;;16.84;100.00;101207.00;5063016;28;20028;-80
2023/10/03 09:21:03;;;;;;;1.10;0.50;;;;;;;16.94;100.00;101210.19;5073005;28;20021;-80
2023/10/03 09:23:37;;;;;;;1.08;0.77;;;;;;;17.13;100.00;101229.56;5071743;28;20469;-80
2023/10/03 09:26:03;;;;;;;1.23;0.63;;;;;;;17.24;100.00;101246.69;5071591;28;20035;-80
2023/10/03 09:28:37;;;;;;;0.90;0.68;;;;;;;17.27;100.00;101257.06;5072628;28;20028;-80
2023/10/03 09:31:08;;;;;;;1.65;0.80;;;;;;;17.32;100.00;101255.16;5071631;28;20028;-80
2023/10/03 09:33:38;;;;;;;0.93;0.70;;;;;;;17.28;100.00;101259.63;5071796;28;20051;-80
2023/10/03 09:36:04;;;;;;;0.60;0.60;;;;;;;17.21;99.83;101271.25;5071940;28;20020;-80
2023/10/03 09:38:42;;;;;;;1.15;0.75;;;;;;;17.14;100.00;101273.25;5089616;28;20032;-80
2023/10/03 09:41:08;;;;;;;1.23;0.85;;;;;;;17.05;99.91;101268.34;5087899;28;20024;-80
2023/10/03 09:43:35;;;;;;;1.73;0.90;;;;;;;16.98;100.00;101266.84;5072025;28;20039;-80
2023/10/03 09:46:00;;;;;;;;;;;;;;;16.96;100.00;101268.69;5072210;28;20385;-80
2023/10/03 09:48:26;;;;;;;0.90;0.90;;;;;;;16.92;100.00;101265.28;5071988;28;19913;-80
2023/10/03 09:51:05;;;;;;;1.60;0.70;;;;;;;16.92;100.00;101259.16;5072530;28;20104;-80
2023/10/03 09:53:31;;;;;;;0.98;0.65;;;;;;;16.91;100.00;101275.78;5071855;28;20028;-80
2023/10/03 09:55:57;;;;;;;1.38;0.90;;;;;;;16.88;100.00;101289.88;5072603;28;20021;-80
2023/10/03 09:58:31;;;;;;;1.13;0.90;;;;;;;16.81;99.11;101285.78;5071914;28;20520;-80
2023/10/03 10:00:57;;;;;;;2.22;1.00;;;;;;;16.76;98.97;101288.56;5071173;28;20097;-80
2023/10/03 10:03:33;;;;;;;1.15;1.02;;;;;;;16.76;97.34;101298.16;5072033;28;20029;-80
2023/10/03 10:06:13;;;;;;;1.90;1.17;;;;;;;16.79;98.23;101287.56;5072019;28;20382;-80
2023/10/03 10:08:49;;;;;;;1.73;1.10;;;;;;;16.84;98.18;101296.13;5071475;28;20033;-80
2023/10/03 10:11:14;;;;;;;0.80;0.80;;;;;;;16.92;98.86;101320.34;5071781;28;20474;-80
2023/10/03 10:14:01;;;;;;;1.37;0.90;;;;;;;17.03;98.71;101312.09;5071715;28;20043;-80
2023/10/03 10:16:28;;;;;;;1.25;0.70;;;;;;;17.08;98.42;101315.44;5072151;28;20111;-79
2023/10/03 10:18:54;;;;;;;1.35;0.80;;;;;;;17.09;96.49;101326.78;5072502;28;20099;-80
2023/10/03 10:21:19;;;;;;;1.85;0.80;;;;;;;17.09;97.70;101338.13;5071429;28;20118;-80
2023/10/03 10:24:15;;;;;;;1.07;0.70;;;;;;;17.08;96.50;101360.03;5072414;28;20067;-80
2023/10/03 10:26:59;;;;;;;1.55;1.00;;;;;;;17.05;96.95;101364.53;5072019;28;20032;-80
2023/10/03 10:29:26;;;;;;;1.27;0.60;;;;;;;16.97;96.36;101363.00;5071313;28;20051;-80
2023/10/03 10:31:58;;;;;;;;;;;;;;;16.88;96.49;101376.38;5073627;28;20021;-80
2023/10/03 10:34:29;;;;;;;0.80;0.70;;;;;;;16.81;97.18;101375.72;5071860;28;20284;-80
2023/10/03 10:37:11;;;;;;;1.10;1.00;;;;;;;16.76;96.96;101372.41;5075787;28;20025;-80
2023/10/03 10:40:04;;;;;;;0.75;0.60;;;;;;;16.80;97.76;101376.63;5075783;28;20036;-80
2023/10/03 10:42:30;;;;;;;1.50;0.90;;;;;;;16.84;98.26;101382.63;5075135;28;20418;-80
2023/10/03 10:45:04;;;;;;;0.60;0.60;;;;;;;16.80;97.45;101388.91;5076946;28;20052;-80
2023/10/03 10:47:35;;;;;;;1.10;0.88;;;;;;;16.70;97.13;101405.84;5075772;28;20032;-81
2023/10/03 10:50:01;;;;;;;1.40;1.20;;;;;;;16.49;95.99;101414.31;5075144;28;20103;-80
2023/10/03 10:52:29;;;;;;;1.03;0.90;;;;;;;16.29;96.25;101414.06;5075273;28;20503;-80
2023/10/03 10:54:56;;;;;;;1.90;0.90;;;;;;;16.15;97.83;101411.88;5076533;28;20063;-80
2023/10/03 10:57:26;;;;;;;2.35;0.75;;;;;;;15.98;98.32;101407.97;5074570;28;20397;-80
2023/10/03 10:59:52;;;;;;;0.47;0.47;;;;;;;15.85;99.18;101404.84;5074197;28;20047;-80
2023/10/03 11:02:22;;;;;;;0.38;0.38;;;;;;;15.80;100.00;101411.09;5074089;28;20385;-80
2023/10/03 11:04:58;;;;;;;0.63;0.52;;;;;;;15.82;100.00;101415.38;5074110;28;20051;-80
2023/10/03 11:07:28;;;;;;;0.43;0.40;;;;;;;15.85;100.00;101419.69;5073942;28;20037;-81
2023/10/03 11:10:15;;;;;;;0.57;0.50;;;;;;;15.90;100.00;101421.28;5077158;28;20491;-80
2023/10/03 11:12:41;;;;;;;0.40;0.40;;;;;;;15.93;100.00;101437.81;5094634;28;20028;-80
2023/10/03 11:15:12;;;;;;;1.23;0.60;;;;;;;15.89;100.00;101431.81;5094231;28;20062;-81
2023/10/03 11:17:38;;;;;;;0.40;0.40;;;;;;;15.93;100.00;101443.03;5093598;28;20020;-81
2023/10/03 11:20:08;;;;;;;0.73;0.47;;;;;;;15.86;100.00;101431.88;5093970;28;20074;-81
2023/10/03 11:22:37;;;;;;;0.80;0.50;;;;;;;15.87;100.00;101428.38;5093999;28;20032;-81
2023/10/03 11:25:09;;;;;;;0.77;0.50;;;;;;;15.90;100.00;101421.28;5093244;28;20021;-81